sensor_id;sensor_type;location;lat;lon;timestamp;temperature;humidity
10536;DHT22;5316;49.538;8.352;2022-10-16T00:00:43;16.50;99.90
10536;DHT22;5316;49.538;8.352;2022-10-16T00:03:10;16.50;99.90
10536;DHT22;5316;49.538;8.352;2022-10-16T00:05:41;16.40;99.90
10536;DHT22;5316;49.538;8.352;2022-10-16T00:08:10;16.40;99.90
10536;DHT22;5316;49.538;8.352;2022-10-16T00:10:37;16.40;99.90
10536;DHT22;5316;49.538;8.352;2022-10-16T00:13:04;16.40;99.90
10536;DHT22;5316;49.538;8.352;2022-10-16T00:15:33;16.40;99.90
10536;DHT22;5316;49.538;8.352;2022-10-16T00:18:03;16.40;99.90
10536;DHT22;5316;49.538;8.352;2022-10-16T00:20:30;16.40;99.90
10536;DHT22;5316;49.538;8.352;2022-10-16T00:22:59;16.40;99.90
10536;DHT22;5316;49.538;8.352;2022-10-16T00:25:26;16.40;99.90
10536;DHT22;5316;49.538;8.352;2022-10-16T00:27:52;16.40;99.90
10536;DHT22;5316;49.538;8.352;2022-10-16T00:30:19;16.40;99.90
10536;DHT22;5316;49.538;8.352;2022-10-16T00:32:46;16.40;99.90
10536;DHT22;5316;49.538;8.352;2022-10-16T00:35:14;16.40;99.90
10536;DHT22;5316;49.538;8.352;2022-10-16T00:37:41;16.50;99.90
10536;DHT22;5316;49.538;8.352;2022-10-16T00:40:08;16.40;99.90
10536;DHT22;5316;49.538;8.352;2022-10-16T00:42:35;16.40;99.90
10536;DHT22;5316;49.538;8.352;2022-10-16T00:45:03;16.40;99.90
10536;DHT22;5316;49.538;8.352;2022-10-16T00:47:33;16.40;99.90
10536;DHT22;5316;49.538;8.352;2022-10-16T00:50:04;16.40;99.90
10536;DHT22;5316;49.538;8.352;2022-10-16T00:52:34;16.40;99.90
10536;DHT22;5316;49.538;8.352;2022-10-16T00:55:02;16.40;99.90
10536;DHT22;5316;49.538;8.352;2022-10-16T00:57:31;16.40;99.90
10536;DHT22;5316;49.538;8.352;2022-10-16T00:59:58;16.40;99.90
10536;DHT22;5316;49.538;8.352;2022-10-16T01:02:25;16.40;99.90
10536;DHT22;5316;49.538;8.352;2022-10-16T01:04:53;16.40;99.90
10536;DHT22;5316;49.538;8.352;2022-10-16T01:07:31;16.40;99.90
10536;DHT22;5316;49.538;8.352;2022-10-16T01:10:07;16.40;99.90
10536;DHT22;5316;49.538;8.352;2022-10-16T01:12:44;16.50;99.90
10536;DHT22;5316;49.538;8.352;2022-10-16T01:15:17;16.50;99.90
10536;DHT22;5316;49.538;8.352;2022-10-16T01:17:49;16.40;99.90
10536;DHT22;5316;49.538;8.352;2022-10-16T01:20:23;16.40;99.90
10536;DHT22;5316;49.538;8.352;2022-10-16T01:23:09;16.50;99.90
10536;DHT22;5316;49.538;8.352;2022-10-16T01:25:54;16.50;99.90
10536;DHT22;5316;49.538;8.352;2022-10-16T01:28:31;16.50;99.90
10536;DHT22;5316;49.538;8.352;2022-10-16T01:30:59;16.40;99.90
10536;DHT22;5316;49.538;8.352;2022-10-16T01:33:34;16.40;99.90
10536;DHT22;5316;49.538;8.352;2022-10-16T01:36:06;16.40;99.90
10536;DHT22;5316;49.538;8.352;2022-10-16T01:38:35;16.40;99.90
10536;DHT22;5316;49.538;8.352;2022-10-16T01:41:07;16.40;99.90
10536;DHT22;5316;49.538;8.352;2022-10-16T01:43:40;16.40;99.90
10536;DHT22;5316;49.538;8.352;2022-10-16T01:46:08;16.40;99.90
10536;DHT22;5316;49.538;8.352;2022-10-16T01:48:36;16.40;99.90
10536;DHT22;5316;49.538;8.352;2022-10-16T01:51:06;16.40;99.90
10536;DHT22;5316;49.538;8.352;2022-10-16T01:53:33;16.40;99.90
10536;DHT22;5316;49.538;8.352;2022-10-16T01:56:03;16.30;99.90
10536;DHT22;5316;49.538;8.352;2022-10-16T01:58:34;16.30;99.90
10536;DHT22;5316;49.538;8.352;2022-10-16T02:01:04;16.30;99.90
10536;DHT22;5316;49.538;8.352;2022-10-16T02:03:36;16.30;99.90
10536;DHT22;5316;49.538;8.352;2022-10-16T02:06:04;16.30;99.90
10536;DHT22;5316;49.538;8.352;2022-10-16T02:08:31;16.30;99.90
10536;DHT22;5316;49.538;8.352;2022-10-16T02:10:59;16.30;99.90
10536;DHT22;5316;49.538;8.352;2022-10-16T02:13:29;16.30;99.90
10536;DHT22;5316;49.538;8.352;2022-10-16T02:15:57;16.30;99.90
10536;DHT22;5316;49.538;8.352;2022-10-16T02:18:26;16.30;99.90
10536;DHT22;5316;49.538;8.352;2022-10-16T02:20:57;16.30;99.90
10536;DHT22;5316;49.538;8.352;2022-10-16T02:23:32;16.30;99.90
10536;DHT22;5316;49.538;8.352;2022-10-16T02:26:03;16.30;99.90
10536;DHT22;5316;49.538;8.352;2022-10-16T02:28:35;16.30;99.90
10536;DHT22;5316;49.538;8.352;2022-10-16T02:31:07;16.30;99.90
10536;DHT22;5316;49.538;8.352;2022-10-16T02:33:37;16.20;99.90
10536;DHT22;5316;49.538;8.352;2022-10-16T02:36:05;16.20;99.90
10536;DHT22;5316;49.538;8.352;2022-10-16T02:38:33;16.20;99.90
10536;DHT22;5316;49.538;8.352;2022-10-16T02:41:00;16.20;99.90
10536;DHT22;5316;49.538;8.352;2022-10-16T02:43:27;16.20;99.90
10536;DHT22;5316;49.538;8.352;2022-10-16T02:45:55;16.20;99.90
10536;DHT22;5316;49.538;8.352;2022-10-16T02:48:21;16.20;99.90
10536;DHT22;5316;49.538;8.352;2022-10-16T02:50:49;16.20;99.90
10536;DHT22;5316;49.538;8.352;2022-10-16T02:53:16;16.20;99.90
10536;DHT22;5316;49.538;8.352;2022-10-16T02:55:43;16.20;99.90
10536;DHT22;5316;49.538;8.352;2022-10-16T02:58:10;16.20;99.90
10536;DHT22;5316;49.538;8.352;2022-10-16T03:00:36;16.20;99.90
10536;DHT22;5316;49.538;8.352;2022-10-16T03:03:03;16.20;99.90
10536;DHT22;5316;49.538;8.352;2022-10-16T03:05:30;16.20;99.90
10536;DHT22;5316;49.538;8.352;2022-10-16T03:07:58;16.20;99.90
10536;DHT22;5316;49.538;8.352;2022-10-16T03:10:26;16.20;99.90
10536;DHT22;5316;49.538;8.352;2022-10-16T03:12:53;16.20;99.90
10536;DHT22;5316;49.538;8.352;2022-10-16T03:15:20;16.20;99.90
10536;DHT22;5316;49.538;8.352;2022-10-16T03:17:46;16.20;99.90
10536;DHT22;5316;49.538;8.352;2022-10-16T03:20:13;16.20;99.90
10536;DHT22;5316;49.538;8.352;2022-10-16T03:22:40;16.10;99.90
10536;DHT22;5316;49.538;8.352;2022-10-16T03:25:08;16.10;99.90
10536;DHT22;5316;49.538;8.352;2022-10-16T03:27:35;16.10;99.90
10536;DHT22;5316;49.538;8.352;2022-10-16T03:30:03;16.10;99.90
10536;DHT22;5316;49.538;8.352;2022-10-16T03:32:29;16.10;99.90
10536;DHT22;5316;49.538;8.352;2022-10-16T03:34:56;16.10;99.90
10536;DHT22;5316;49.538;8.352;2022-10-16T03:37:23;16.10;99.90
10536;DHT22;5316;49.538;8.352;2022-10-16T03:39:49;16.10;99.90
10536;DHT22;5316;49.538;8.352;2022-10-16T03:42:17;16.10;99.90
10536;DHT22;5316;49.538;8.352;2022-10-16T03:44:44;16.10;99.90
10536;DHT22;5316;49.538;8.352;2022-10-16T03:47:11;16.10;99.90
10536;DHT22;5316;49.538;8.352;2022-10-16T03:49:37;16.10;99.90
10536;DHT22;5316;49.538;8.352;2022-10-16T03:52:04;16.00;99.90
10536;DHT22;5316;49.538;8.352;2022-10-16T03:54:31;16.10;99.90
10536;DHT22;5316;49.538;8.352;2022-10-16T03:56:57;16.10;99.90
10536;DHT22;5316;49.538;8.352;2022-10-16T03:59:25;16.10;99.90
10536;DHT22;5316;49.538;8.352;2022-10-16T04:01:52;16.10;99.90
10536;DHT22;5316;49.538;8.352;2022-10-16T04:04:19;16.10;99.90
10536;DHT22;5316;49.538;8.352;2022-10-16T04:06:45;16.10;99.90
10536;DHT22;5316;49.538;8.352;2022-10-16T04:09:12;16.10;99.90
10536;DHT22;5316;49.538;8.352;2022-10-16T04:11:39;16.10;99.90
10536;DHT22;5316;49.538;8.352;2022-10-16T04:14:06;16.10;99.90
10536;DHT22;5316;49.538;8.352;2022-10-16T04:16:34;16.10;99.90
10536;DHT22;5316;49.538;8.352;2022-10-16T04:19:00;16.00;99.90
10536;DHT22;5316;49.538;8.352;2022-10-16T04:21:27;16.00;99.90
10536;DHT22;5316;49.538;8.352;2022-10-16T04:23:54;16.00;99.90
10536;DHT22;5316;49.538;8.352;2022-10-16T04:26:20;16.00;99.90
10536;DHT22;5316;49.538;8.352;2022-10-16T04:28:47;16.00;99.90
10536;DHT22;5316;49.538;8.352;2022-10-16T04:31:14;16.00;99.90
10536;DHT22;5316;49.538;8.352;2022-10-16T04:33:43;15.90;99.90
10536;DHT22;5316;49.538;8.352;2022-10-16T04:36:10;15.90;99.90
10536;DHT22;5316;49.538;8.352;2022-10-16T04:38:37;15.90;99.90
10536;DHT22;5316;49.538;8.352;2022-10-16T04:41:05;15.90;99.90
10536;DHT22;5316;49.538;8.352;2022-10-16T04:43:31;15.90;99.90
10536;DHT22;5316;49.538;8.352;2022-10-16T04:45:59;15.90;99.90
10536;DHT22;5316;49.538;8.352;2022-10-16T04:48:27;15.90;99.90
10536;DHT22;5316;49.538;8.352;2022-10-16T04:50:55;15.90;99.90
10536;DHT22;5316;49.538;8.352;2022-10-16T04:53:22;15.90;99.90
10536;DHT22;5316;49.538;8.352;2022-10-16T04:55:49;15.90;99.90
10536;DHT22;5316;49.538;8.352;2022-10-16T04:58:16;15.80;99.90
10536;DHT22;5316;49.538;8.352;2022-10-16T05:00:44;15.90;99.90
10536;DHT22;5316;49.538;8.352;2022-10-16T05:03:11;15.80;99.90
10536;DHT22;5316;49.538;8.352;2022-10-16T05:05:42;15.80;99.90
10536;DHT22;5316;49.538;8.352;2022-10-16T05:08:11;15.80;99.90
10536;DHT22;5316;49.538;8.352;2022-10-16T05:10:38;15.80;99.90
10536;DHT22;5316;49.538;8.352;2022-10-16T05:13:04;15.80;99.90
10536;DHT22;5316;49.538;8.352;2022-10-16T05:15:31;15.80;99.90
10536;DHT22;5316;49.538;8.352;2022-10-16T05:17:58;15.80;99.90
10536;DHT22;5316;49.538;8.352;2022-10-16T05:20:25;15.80;99.90
10536;DHT22;5316;49.538;8.352;2022-10-16T05:22:51;15.80;99.90
10536;DHT22;5316;49.538;8.352;2022-10-16T05:25:20;15.80;99.90
10536;DHT22;5316;49.538;8.352;2022-10-16T05:27:47;15.80;99.90
10536;DHT22;5316;49.538;8.352;2022-10-16T05:30:14;15.80;99.90
10536;DHT22;5316;49.538;8.352;2022-10-16T05:32:46;15.80;99.90
10536;DHT22;5316;49.538;8.352;2022-10-16T05:35:12;15.80;99.90
10536;DHT22;5316;49.538;8.352;2022-10-16T05:37:39;15.80;99.90
10536;DHT22;5316;49.538;8.352;2022-10-16T05:40:07;15.80;99.90
10536;DHT22;5316;49.538;8.352;2022-10-16T05:42:36;15.80;99.90
10536;DHT22;5316;49.538;8.352;2022-10-16T05:45:03;15.80;99.90
10536;DHT22;5316;49.538;8.352;2022-10-16T05:47:30;15.80;99.90
10536;DHT22;5316;49.538;8.352;2022-10-16T05:49:57;15.80;99.90
10536;DHT22;5316;49.538;8.352;2022-10-16T05:52:24;15.80;99.90
10536;DHT22;5316;49.538;8.352;2022-10-16T05:54:50;15.80;99.90
10536;DHT22;5316;49.538;8.352;2022-10-16T05:57:17;15.80;99.90
10536;DHT22;5316;49.538;8.352;2022-10-16T05:59:45;15.80;99.90
10536;DHT22;5316;49.538;8.352;2022-10-16T06:02:12;15.70;99.90
10536;DHT22;5316;49.538;8.352;2022-10-16T06:04:39;15.70;99.90
10536;DHT22;5316;49.538;8.352;2022-10-16T06:07:06;15.70;99.90
10536;DHT22;5316;49.538;8.352;2022-10-16T06:09:39;15.70;99.90
10536;DHT22;5316;49.538;8.352;2022-10-16T06:45:00;15.90;99.90
10536;DHT22;5316;49.538;8.352;2022-10-16T06:47:27;15.90;99.90
10536;DHT22;5316;49.538;8.352;2022-10-16T06:49:54;15.90;99.90
10536;DHT22;5316;49.538;8.352;2022-10-16T06:52:21;16.00;99.90
10536;DHT22;5316;49.538;8.352;2022-10-16T06:54:49;16.00;99.90
10536;DHT22;5316;49.538;8.352;2022-10-16T06:57:16;16.00;99.90
10536;DHT22;5316;49.538;8.352;2022-10-16T06:59:42;16.00;99.90
10536;DHT22;5316;49.538;8.352;2022-10-16T07:04:38;16.00;99.90
10536;DHT22;5316;49.538;8.352;2022-10-16T07:07:05;16.00;99.90
10536;DHT22;5316;49.538;8.352;2022-10-16T07:09:32;16.10;99.90
10536;DHT22;5316;49.538;8.352;2022-10-16T07:11:59;16.10;99.90
10536;DHT22;5316;49.538;8.352;2022-10-16T07:14:26;16.10;99.90
10536;DHT22;5316;49.538;8.352;2022-10-16T07:16:53;16.10;99.90
10536;DHT22;5316;49.538;8.352;2022-10-16T07:19:20;16.20;99.90
10536;DHT22;5316;49.538;8.352;2022-10-16T07:21:48;16.20;99.90
10536;DHT22;5316;49.538;8.352;2022-10-16T07:24:16;16.20;99.90
10536;DHT22;5316;49.538;8.352;2022-10-16T07:26:44;16.20;99.90
10536;DHT22;5316;49.538;8.352;2022-10-16T07:29:14;16.30;99.90
10536;DHT22;5316;49.538;8.352;2022-10-16T07:31:42;16.30;99.90
10536;DHT22;5316;49.538;8.352;2022-10-16T07:34:10;16.30;99.90
10536;DHT22;5316;49.538;8.352;2022-10-16T07:36:37;16.30;99.90
10536;DHT22;5316;49.538;8.352;2022-10-16T07:39:05;16.40;99.90
10536;DHT22;5316;49.538;8.352;2022-10-16T07:41:32;16.40;99.90
10536;DHT22;5316;49.538;8.352;2022-10-16T07:44:03;16.40;99.90
10536;DHT22;5316;49.538;8.352;2022-10-16T07:46:30;16.40;99.90
10536;DHT22;5316;49.538;8.352;2022-10-16T07:48:57;16.50;99.90
10536;DHT22;5316;49.538;8.352;2022-10-16T07:51:25;16.50;99.90
10536;DHT22;5316;49.538;8.352;2022-10-16T07:53:52;16.50;99.90
10536;DHT22;5316;49.538;8.352;2022-10-16T07:56:21;16.50;99.90
10536;DHT22;5316;49.538;8.352;2022-10-16T07:58:48;16.60;99.90
10536;DHT22;5316;49.538;8.352;2022-10-16T08:01:16;16.60;99.90
10536;DHT22;5316;49.538;8.352;2022-10-16T08:03:44;16.60;99.90
10536;DHT22;5316;49.538;8.352;2022-10-16T08:06:22;16.70;99.90
10536;DHT22;5316;49.538;8.352;2022-10-16T08:08:49;16.70;99.90
10536;DHT22;5316;49.538;8.352;2022-10-16T08:11:17;16.70;99.90
10536;DHT22;5316;49.538;8.352;2022-10-16T08:13:45;16.70;99.90
10536;DHT22;5316;49.538;8.352;2022-10-16T08:16:12;16.60;99.90
10536;DHT22;5316;49.538;8.352;2022-10-16T08:18:40;16.60;99.90
10536;DHT22;5316;49.538;8.352;2022-10-16T08:21:12;16.60;99.90
10536;DHT22;5316;49.538;8.352;2022-10-16T08:23:39;16.60;99.90
10536;DHT22;5316;49.538;8.352;2022-10-16T08:26:07;16.60;99.90
10536;DHT22;5316;49.538;8.352;2022-10-16T08:28:35;16.60;99.90
10536;DHT22;5316;49.538;8.352;2022-10-16T08:31:08;16.50;99.90
10536;DHT22;5316;49.538;8.352;2022-10-16T08:33:35;16.50;99.90
10536;DHT22;5316;49.538;8.352;2022-10-16T08:36:03;16.50;99.90
10536;DHT22;5316;49.538;8.352;2022-10-16T08:38:32;16.40;99.90
10536;DHT22;5316;49.538;8.352;2022-10-16T08:41:15;16.30;99.90
10536;DHT22;5316;49.538;8.352;2022-10-16T08:43:54;16.30;99.90
10536;DHT22;5316;49.538;8.352;2022-10-16T08:46:37;16.30;99.90
10536;DHT22;5316;49.538;8.352;2022-10-16T08:49:10;16.30;99.90
10536;DHT22;5316;49.538;8.352;2022-10-16T08:51:38;16.30;99.90
10536;DHT22;5316;49.538;8.352;2022-10-16T08:54:21;16.30;99.90
10536;DHT22;5316;49.538;8.352;2022-10-16T08:56:49;16.40;99.90
10536;DHT22;5316;49.538;8.352;2022-10-16T08:59:16;16.50;99.90
10536;DHT22;5316;49.538;8.352;2022-10-16T09:01:47;16.50;99.90
10536;DHT22;5316;49.538;8.352;2022-10-16T09:04:46;16.50;99.90
10536;DHT22;5316;49.538;8.352;2022-10-16T09:07:22;16.50;99.90
10536;DHT22;5316;49.538;8.352;2022-10-16T09:10:09;16.70;99.90
10536;DHT22;5316;49.538;8.352;2022-10-16T09:12:41;16.80;99.90
10536;DHT22;5316;49.538;8.352;2022-10-16T09:15:20;16.90;99.90
10536;DHT22;5316;49.538;8.352;2022-10-16T09:17:55;17.00;99.90
10536;DHT22;5316;49.538;8.352;2022-10-16T09:20:30;17.10;99.90
10536;DHT22;5316;49.538;8.352;2022-10-16T09:23:10;17.20;99.90
10536;DHT22;5316;49.538;8.352;2022-10-16T09:25:39;17.40;99.90
10536;DHT22;5316;49.538;8.352;2022-10-16T09:28:09;17.50;99.90
10536;DHT22;5316;49.538;8.352;2022-10-16T09:30:37;17.60;99.90
10536;DHT22;5316;49.538;8.352;2022-10-16T09:33:06;17.70;99.90
10536;DHT22;5316;49.538;8.352;2022-10-16T09:35:37;17.80;99.90
10536;DHT22;5316;49.538;8.352;2022-10-16T09:38:04;17.80;99.90
10536;DHT22;5316;49.538;8.352;2022-10-16T09:40:32;17.80;99.90
10536;DHT22;5316;49.538;8.352;2022-10-16T09:43:03;17.80;99.90
10536;DHT22;5316;49.538;8.352;2022-10-16T09:45:33;17.90;99.90
10536;DHT22;5316;49.538;8.352;2022-10-16T09:48:01;17.90;99.90
10536;DHT22;5316;49.538;8.352;2022-10-16T09:50:38;17.90;99.90
10536;DHT22;5316;49.538;8.352;2022-10-16T09:53:08;18.00;99.90
10536;DHT22;5316;49.538;8.352;2022-10-16T09:55:48;18.00;99.90
10536;DHT22;5316;49.538;8.352;2022-10-16T09:58:15;18.10;99.90
10536;DHT22;5316;49.538;8.352;2022-10-16T10:00:47;18.20;99.90
10536;DHT22;5316;49.538;8.352;2022-10-16T10:03:33;18.30;99.90
10536;DHT22;5316;49.538;8.352;2022-10-16T10:06:07;18.40;99.90
10536;DHT22;5316;49.538;8.352;2022-10-16T10:08:41;18.50;99.90
10536;DHT22;5316;49.538;8.352;2022-10-16T10:11:10;18.60;99.90
10536;DHT22;5316;49.538;8.352;2022-10-16T10:13:36;18.70;99.90
10536;DHT22;5316;49.538;8.352;2022-10-16T10:16:03;18.70;99.90
10536;DHT22;5316;49.538;8.352;2022-10-16T10:18:30;18.80;99.90
10536;DHT22;5316;49.538;8.352;2022-10-16T10:20:58;18.90;99.90
10536;DHT22;5316;49.538;8.352;2022-10-16T10:23:28;18.90;99.90
10536;DHT22;5316;49.538;8.352;2022-10-16T10:26:08;18.90;99.90
10536;DHT22;5316;49.538;8.352;2022-10-16T10:29:13;19.00;99.90
10536;DHT22;5316;49.538;8.352;2022-10-16T10:31:47;19.00;99.90
10536;DHT22;5316;49.538;8.352;2022-10-16T10:34:30;19.00;99.90
10536;DHT22;5316;49.538;8.352;2022-10-16T10:37:04;19.00;99.90
10536;DHT22;5316;49.538;8.352;2022-10-16T10:39:42;19.10;99.90
10536;DHT22;5316;49.538;8.352;2022-10-16T10:42:18;19.00;99.90
10536;DHT22;5316;49.538;8.352;2022-10-16T10:44:59;19.00;99.90
10536;DHT22;5316;49.538;8.352;2022-10-16T10:47:35;19.00;99.90
10536;DHT22;5316;49.538;8.352;2022-10-16T10:50:14;19.00;99.90
10536;DHT22;5316;49.538;8.352;2022-10-16T10:52:59;19.10;99.90
10536;DHT22;5316;49.538;8.352;2022-10-16T10:55:39;19.10;99.90
10536;DHT22;5316;49.538;8.352;2022-10-16T10:58:22;19.10;99.90
10536;DHT22;5316;49.538;8.352;2022-10-16T11:00:56;19.10;99.90
10536;DHT22;5316;49.538;8.352;2022-10-16T11:03:35;19.10;99.90
10536;DHT22;5316;49.538;8.352;2022-10-16T11:06:07;19.10;99.90
10536;DHT22;5316;49.538;8.352;2022-10-16T11:08:37;19.10;99.90
10536;DHT22;5316;49.538;8.352;2022-10-16T11:11:10;19.20;99.90
10536;DHT22;5316;49.538;8.352;2022-10-16T11:13:45;19.20;99.90
10536;DHT22;5316;49.538;8.352;2022-10-16T11:16:19;19.20;99.90
10536;DHT22;5316;49.538;8.352;2022-10-16T11:18:52;19.20;99.90
10536;DHT22;5316;49.538;8.352;2022-10-16T11:21:21;19.30;99.90
10536;DHT22;5316;49.538;8.352;2022-10-16T11:23:53;19.40;99.90
10536;DHT22;5316;49.538;8.352;2022-10-16T11:26:26;19.40;99.90
10536;DHT22;5316;49.538;8.352;2022-10-16T11:28:59;19.50;99.90
10536;DHT22;5316;49.538;8.352;2022-10-16T11:31:34;19.60;99.90
10536;DHT22;5316;49.538;8.352;2022-10-16T11:34:05;19.80;99.90
10536;DHT22;5316;49.538;8.352;2022-10-16T11:36:39;19.80;99.90
10536;DHT22;5316;49.538;8.352;2022-10-16T11:39:16;20.00;99.90
10536;DHT22;5316;49.538;8.352;2022-10-16T11:41:49;20.20;99.90
10536;DHT22;5316;49.538;8.352;2022-10-16T11:44:32;20.30;99.90
10536;DHT22;5316;49.538;8.352;2022-10-16T11:47:07;20.50;99.90
10536;DHT22;5316;49.538;8.352;2022-10-16T11:49:36;20.70;99.90
10536;DHT22;5316;49.538;8.352;2022-10-16T11:52:11;20.80;99.90
10536;DHT22;5316;49.538;8.352;2022-10-16T11:54:43;21.00;99.90
10536;DHT22;5316;49.538;8.352;2022-10-16T11:57:17;21.20;99.90
10536;DHT22;5316;49.538;8.352;2022-10-16T11:59:51;21.30;99.90
10536;DHT22;5316;49.538;8.352;2022-10-16T12:02:38;21.40;99.90
10536;DHT22;5316;49.538;8.352;2022-10-16T12:05:13;21.50;99.90
10536;DHT22;5316;49.538;8.352;2022-10-16T12:07:47;21.60;99.90
10536;DHT22;5316;49.538;8.352;2022-10-16T12:10:22;21.60;99.90
10536;DHT22;5316;49.538;8.352;2022-10-16T12:12:53;21.50;99.90
10536;DHT22;5316;49.538;8.352;2022-10-16T12:15:24;21.40;99.90
10536;DHT22;5316;49.538;8.352;2022-10-16T12:17:51;21.40;99.90
10536;DHT22;5316;49.538;8.352;2022-10-16T12:20:28;21.40;99.90
10536;DHT22;5316;49.538;8.352;2022-10-16T12:22:59;21.40;99.90
10536;DHT22;5316;49.538;8.352;2022-10-16T12:25:28;21.40;99.90
10536;DHT22;5316;49.538;8.352;2022-10-16T12:28:02;21.40;99.90
10536;DHT22;5316;49.538;8.352;2022-10-16T12:30:33;21.40;99.90
10536;DHT22;5316;49.538;8.352;2022-10-16T12:33:03;21.40;99.90
10536;DHT22;5316;49.538;8.352;2022-10-16T12:35:33;21.40;99.90
10536;DHT22;5316;49.538;8.352;2022-10-16T12:38:15;21.40;99.90
10536;DHT22;5316;49.538;8.352;2022-10-16T12:40:44;21.40;99.90
10536;DHT22;5316;49.538;8.352;2022-10-16T12:43:26;21.40;99.90
10536;DHT22;5316;49.538;8.352;2022-10-16T12:46:00;21.50;99.90
10536;DHT22;5316;49.538;8.352;2022-10-16T12:48:27;21.50;99.90
10536;DHT22;5316;49.538;8.352;2022-10-16T12:50:54;21.60;99.90
10536;DHT22;5316;49.538;8.352;2022-10-16T12:53:23;21.60;99.90
10536;DHT22;5316;49.538;8.352;2022-10-16T12:56:03;21.60;99.90
10536;DHT22;5316;49.538;8.352;2022-10-16T12:58:52;21.60;99.90
10536;DHT22;5316;49.538;8.352;2022-10-16T13:01:39;21.50;99.90
10536;DHT22;5316;49.538;8.352;2022-10-16T13:04:26;21.40;99.90
10536;DHT22;5316;49.538;8.352;2022-10-16T13:07:09;21.40;99.90
10536;DHT22;5316;49.538;8.352;2022-10-16T13:09:46;21.30;99.90
10536;DHT22;5316;49.538;8.352;2022-10-16T13:12:39;21.30;99.90
10536;DHT22;5316;49.538;8.352;2022-10-16T13:15:25;21.20;99.90
10536;DHT22;5316;49.538;8.352;2022-10-16T13:17:58;21.20;99.90
10536;DHT22;5316;49.538;8.352;2022-10-16T13:20:31;21.20;99.90
10536;DHT22;5316;49.538;8.352;2022-10-16T13:23:06;21.10;99.90
10536;DHT22;5316;49.538;8.352;2022-10-16T13:25:46;21.00;99.90
10536;DHT22;5316;49.538;8.352;2022-10-16T13:28:17;21.00;99.90
10536;DHT22;5316;49.538;8.352;2022-10-16T13:30:53;21.00;99.90
10536;DHT22;5316;49.538;8.352;2022-10-16T13:33:31;21.00;99.90
10536;DHT22;5316;49.538;8.352;2022-10-16T13:35:58;20.90;99.90
10536;DHT22;5316;49.538;8.352;2022-10-16T13:38:27;20.90;99.90
10536;DHT22;5316;49.538;8.352;2022-10-16T13:40:55;20.80;99.90
10536;DHT22;5316;49.538;8.352;2022-10-16T13:43:26;20.80;99.90
10536;DHT22;5316;49.538;8.352;2022-10-16T13:45:56;20.80;99.90
10536;DHT22;5316;49.538;8.352;2022-10-16T13:48:24;20.80;99.90
10536;DHT22;5316;49.538;8.352;2022-10-16T13:51:02;20.80;99.90
10536;DHT22;5316;49.538;8.352;2022-10-16T13:53:32;20.80;99.90
10536;DHT22;5316;49.538;8.352;2022-10-16T13:55:59;20.80;99.90
10536;DHT22;5316;49.538;8.352;2022-10-16T13:58:26;20.70;99.90
10536;DHT22;5316;49.538;8.352;2022-10-16T14:00:57;20.70;99.90
10536;DHT22;5316;49.538;8.352;2022-10-16T14:03:25;20.60;99.90
10536;DHT22;5316;49.538;8.352;2022-10-16T14:05:54;20.60;99.90
10536;DHT22;5316;49.538;8.352;2022-10-16T14:08:22;20.60;99.90
10536;DHT22;5316;49.538;8.352;2022-10-16T14:10:50;20.50;99.90
10536;DHT22;5316;49.538;8.352;2022-10-16T14:13:20;20.60;99.90
10536;DHT22;5316;49.538;8.352;2022-10-16T14:15:51;20.60;99.90
10536;DHT22;5316;49.538;8.352;2022-10-16T14:18:22;20.60;99.90
10536;DHT22;5316;49.538;8.352;2022-10-16T14:20:51;20.60;99.90
10536;DHT22;5316;49.538;8.352;2022-10-16T14:23:21;20.60;99.90
10536;DHT22;5316;49.538;8.352;2022-10-16T14:25:48;20.60;99.90
10536;DHT22;5316;49.538;8.352;2022-10-16T14:28:17;20.60;99.90
10536;DHT22;5316;49.538;8.352;2022-10-16T14:30:54;20.60;99.90
10536;DHT22;5316;49.538;8.352;2022-10-16T14:33:25;20.60;99.90
10536;DHT22;5316;49.538;8.352;2022-10-16T14:36:03;20.60;99.90
10536;DHT22;5316;49.538;8.352;2022-10-16T14:38:32;20.60;99.90
10536;DHT22;5316;49.538;8.352;2022-10-16T14:41:00;20.50;99.90
10536;DHT22;5316;49.538;8.352;2022-10-16T14:43:31;20.40;99.90
10536;DHT22;5316;49.538;8.352;2022-10-16T14:46:02;20.50;99.90
10536;DHT22;5316;49.538;8.352;2022-10-16T14:48:30;20.50;99.90
10536;DHT22;5316;49.538;8.352;2022-10-16T14:50:57;20.50;99.90
10536;DHT22;5316;49.538;8.352;2022-10-16T14:53:24;20.50;99.90
10536;DHT22;5316;49.538;8.352;2022-10-16T14:55:51;20.50;99.90
10536;DHT22;5316;49.538;8.352;2022-10-16T14:58:20;20.60;99.90
10536;DHT22;5316;49.538;8.352;2022-10-16T15:00:48;20.60;99.90
10536;DHT22;5316;49.538;8.352;2022-10-16T15:03:15;20.70;99.90
10536;DHT22;5316;49.538;8.352;2022-10-16T15:05:44;20.70;99.90
10536;DHT22;5316;49.538;8.352;2022-10-16T15:08:11;20.80;99.90
10536;DHT22;5316;49.538;8.352;2022-10-16T15:10:40;20.90;99.90
10536;DHT22;5316;49.538;8.352;2022-10-16T15:13:13;21.10;99.90
10536;DHT22;5316;49.538;8.352;2022-10-16T15:15:42;21.30;99.90
10536;DHT22;5316;49.538;8.352;2022-10-16T15:18:11;21.50;99.90
10536;DHT22;5316;49.538;8.352;2022-10-16T15:20:40;21.60;99.90
10536;DHT22;5316;49.538;8.352;2022-10-16T15:23:14;21.70;99.90
10536;DHT22;5316;49.538;8.352;2022-10-16T15:25:42;21.90;99.90
10536;DHT22;5316;49.538;8.352;2022-10-16T15:28:11;21.90;99.90
10536;DHT22;5316;49.538;8.352;2022-10-16T15:30:38;21.90;99.90
10536;DHT22;5316;49.538;8.352;2022-10-16T15:33:09;21.90;99.90
10536;DHT22;5316;49.538;8.352;2022-10-16T15:35:38;21.90;99.90
10536;DHT22;5316;49.538;8.352;2022-10-16T15:38:06;21.80;99.90
10536;DHT22;5316;49.538;8.352;2022-10-16T15:40:34;21.70;99.90
10536;DHT22;5316;49.538;8.352;2022-10-16T15:43:02;21.70;99.90
10536;DHT22;5316;49.538;8.352;2022-10-16T15:45:29;21.90;99.90
10536;DHT22;5316;49.538;8.352;2022-10-16T15:47:56;22.00;99.90
10536;DHT22;5316;49.538;8.352;2022-10-16T15:50:23;22.00;99.90
10536;DHT22;5316;49.538;8.352;2022-10-16T15:52:51;21.90;99.90
10536;DHT22;5316;49.538;8.352;2022-10-16T15:55:18;21.70;99.90
10536;DHT22;5316;49.538;8.352;2022-10-16T15:57:47;21.60;99.90
10536;DHT22;5316;49.538;8.352;2022-10-16T16:00:16;21.40;99.90
10536;DHT22;5316;49.538;8.352;2022-10-16T16:02:50;21.30;99.90
10536;DHT22;5316;49.538;8.352;2022-10-16T16:05:19;21.10;99.90
10536;DHT22;5316;49.538;8.352;2022-10-16T16:07:46;20.90;99.90
10536;DHT22;5316;49.538;8.352;2022-10-16T16:10:13;20.80;99.90
10536;DHT22;5316;49.538;8.352;2022-10-16T16:12:40;20.70;99.90
10536;DHT22;5316;49.538;8.352;2022-10-16T16:15:09;20.50;99.90
10536;DHT22;5316;49.538;8.352;2022-10-16T16:17:36;20.30;99.90
10536;DHT22;5316;49.538;8.352;2022-10-16T16:20:04;20.20;99.90
10536;DHT22;5316;49.538;8.352;2022-10-16T16:22:31;20.20;99.90
10536;DHT22;5316;49.538;8.352;2022-10-16T16:24:58;20.10;99.90
10536;DHT22;5316;49.538;8.352;2022-10-16T16:27:25;20.00;99.90
10536;DHT22;5316;49.538;8.352;2022-10-16T16:29:51;19.90;99.90
10536;DHT22;5316;49.538;8.352;2022-10-16T16:32:22;19.80;99.90
10536;DHT22;5316;49.538;8.352;2022-10-16T16:34:48;19.70;99.90
10536;DHT22;5316;49.538;8.352;2022-10-16T16:37:15;19.60;99.90
10536;DHT22;5316;49.538;8.352;2022-10-16T16:39:42;19.50;99.90